Time;durP1;ratioP1;P1;durP2;ratioP2;P2;SDS_P1;SDS_P2;PMS_P1;PMS_P2;Temp;Humidity;BMP_temperature;BMP_pressure;BME280_temperature;BME280_humidity;BME280_pressure;Samples;Min_cycle;Max_cycle;Signal;HPM_P1;HPM_P2
2023/09/20 00:01:31;;;;;;;4.43;3.47;;;16.00;59.60;;;;;;6006333;29;20325;-81
2023/09/20 00:04:35;;;;;;;4.33;3.37;;;16.00;60.00;;;;;;6009544;29;20309;-79
2023/09/20 00:07:39;;;;;;;4.27;3.40;;;16.00;60.10;;;;;;6010427;29;20614;-80
2023/09/20 00:10:45;;;;;;;4.40;3.13;;;15.90;60.00;;;;;;6003842;29;20245;-79
2023/09/20 00:13:49;;;;;;;3.73;3.47;;;16.00;60.00;;;;;;6015832;29;20233;-80
2023/09/20 00:16:53;;;;;;;3.93;3.30;;;15.90;60.10;;;;;;6012921;29;20262;-79
2023/09/20 00:19:56;;;;;;;4.00;3.40;;;15.80;60.60;;;;;;5999213;29;20249;-79
2023/09/20 00:23:00;;;;;;;3.87;3.53;;;15.80;60.70;;;;;;6004492;29;20322;-80
2023/09/20 00:26:05;;;;;;;4.90;3.37;;;15.70;60.80;;;;;;6008681;29;20313;-81
2023/09/20 00:29:08;;;;;;;5.33;3.67;;;15.70;61.10;;;;;;6010865;29;20238;-79
2023/09/20 00:32:11;;;;;;;4.70;3.87;;;15.60;61.10;;;;;;6009152;29;20862;-81
2023/09/20 00:35:16;;;;;;;4.10;3.70;;;15.50;61.50;;;;;;6011125;29;20297;-79
2023/09/20 00:38:20;;;;;;;5.33;3.80;;;15.50;61.60;;;;;;6007855;29;20242;-78
2023/09/20 00:41:25;;;;;;;4.03;3.73;;;15.50;61.50;;;;;;6001976;29;20252;-81
2023/09/20 00:44:28;;;;;;;3.57;3.33;;;15.40;61.80;;;;;;6010918;29;20333;-79
2023/09/20 00:47:32;;;;;;;4.17;3.80;;;15.30;62.30;;;;;;6001102;29;20322;-78
2023/09/20 00:50:37;;;;;;;5.13;3.67;;;15.20;62.50;;;;;;6016605;29;20342;-79
2023/09/20 00:53:41;;;;;;;4.83;4.53;;;15.20;62.60;;;;;;6018702;29;20610;-79
2023/09/20 00:56:45;;;;;;;5.23;4.30;;;15.00;62.70;;;;;;6009848;29;20260;-79
2023/09/20 00:59:49;;;;;;;7.10;3.70;;;15.00;62.80;;;;;;6019719;29;20264;-80
2023/09/20 01:02:54;;;;;;;4.43;3.57;;;15.00;62.60;;;;;;6021860;29;20245;-82
2023/09/20 01:05:59;;;;;;;4.30;3.90;;;15.00;62.60;;;;;;6008953;29;20233;-80
2023/09/20 01:09:02;;;;;;;4.50;3.77;;;15.00;62.70;;;;;;6011654;29;20239;-81
2023/09/20 01:12:07;;;;;;;3.90;3.60;;;15.00;62.80;;;;;;6016772;29;20249;-80
2023/09/20 01:15:11;;;;;;;4.13;3.83;;;15.00;62.90;;;;;;6004398;29;20650;-80
2023/09/20 01:18:14;;;;;;;5.30;4.13;;;15.00;62.70;;;;;;6025314;29;20478;-77
2023/09/20 01:21:18;;;;;;;3.83;3.43;;;14.90;63.20;;;;;;6031033;29;20340;-77
2023/09/20 01:24:24;;;;;;;4.50;3.90;;;14.80;63.20;;;;;;6047168;29;20287;-78
2023/09/20 01:27:29;;;;;;;3.57;3.27;;;14.90;63.20;;;;;;6042956;29;20316;-78
2023/09/20 01:30:33;;;;;;;3.47;3.23;;;14.90;63.00;;;;;;6030368;29;20229;-79
2023/09/20 01:33:37;;;;;;;3.97;3.57;;;14.90;63.10;;;;;;6007846;29;20281;-80
2023/09/20 01:36:41;;;;;;;4.90;3.97;;;14.90;63.30;;;;;;6017793;29;20244;-81
2023/09/20 01:39:46;;;;;;;4.40;3.97;;;14.90;63.40;;;;;;6019593;29;20738;-80
2023/09/20 01:42:49;;;;;;;5.00;3.50;;;14.80;63.50;;;;;;6008357;29;20813;-80
2023/09/20 01:45:53;;;;;;;4.40;3.80;;;14.80;63.50;;;;;;6014515;29;20320;-80
2023/09/20 01:48:58;;;;;;;3.63;3.10;;;14.80;63.60;;;;;;6019533;29;20953;-81
2023/09/20 01:52:05;;;;;;;4.87;3.93;;;14.80;63.80;;;;;;6010651;29;20241;-79
2023/09/20 01:55:15;;;;;;;5.30;4.03;;;14.80;63.70;;;;;;6010892;29;20274;-77
2023/09/20 01:58:18;;;;;;;3.87;3.63;;;14.80;63.80;;;;;;6012932;29;20257;-79
2023/09/20 02:01:21;;;;;;;4.93;3.70;;;14.80;63.90;;;;;;6007835;29;20930;-81
2023/09/20 02:04:24;;;;;;;3.57;3.37;;;14.70;63.90;;;;;;6007074;29;20717;-80
2023/09/20 02:07:27;;;;;;;3.70;3.40;;;14.70;64.00;;;;;;6008088;29;20334;-79
2023/09/20 02:10:32;;;;;;;3.93;3.63;;;14.70;64.20;;;;;;6016804;29;20307;-79
2023/09/20 02:13:36;;;;;;;5.13;3.77;;;14.70;64.30;;;;;;6022439;29;20769;-79
2023/09/20 02:16:39;;;;;;;4.17;3.80;;;14.60;64.60;;;;;;6006695;29;20892;-81
2023/09/20 02:19:45;;;;;;;4.77;3.53;;;14.60;64.70;;;;;;6012209;29;20775;-79
2023/09/20 02:22:50;;;;;;;3.93;3.47;;;14.60;65.00;;;;;;6017830;29;20802;-80
2023/09/20 02:25:55;;;;;;;3.73;3.43;;;14.60;64.80;;;;;;6009950;29;20241;-80
2023/09/20 02:28:59;;;;;;;3.47;3.27;;;14.70;64.70;;;;;;6009477;29;20263;-79
2023/09/20 02:32:03;;;;;;;3.43;3.23;;;14.60;65.00;;;;;;6006584;29;20395;-81
2023/09/20 02:35:07;;;;;;;4.00;3.40;;;14.70;65.00;;;;;;6010946;29;20294;-78
2023/09/20 02:38:10;;;;;;;6.13;3.77;;;14.70;64.90;;;;;;6009921;29;20677;-81
2023/09/20 02:41:15;;;;;;;4.30;3.90;;;14.70;64.80;;;;;;6017602;29;20289;-78
2023/09/20 02:44:18;;;;;;;3.93;3.60;;;14.80;64.90;;;;;;6012470;29;20244;-80
2023/09/20 02:47:24;;;;;;;3.63;3.37;;;14.80;64.90;;;;;;6006795;29;20268;-80
2023/09/20 02:50:27;;;;;;;3.50;3.30;;;14.80;65.00;;;;;;6017255;29;20240;-81
2023/09/20 02:53:33;;;;;;;4.27;3.97;;;14.80;64.80;;;;;;6015186;29;20233;-79
2023/09/20 02:56:38;;;;;;;4.57;4.27;;;14.90;64.90;;;;;;6017088;29;20237;-81
2023/09/20 02:59:41;;;;;;;3.90;3.67;;;14.90;65.10;;;;;;6018556;29;20252;-79
2023/09/20 03:02:45;;;;;;;3.63;3.43;;;14.90;65.00;;;;;;6010084;29;20324;-81
2023/09/20 03:05:49;;;;;;;3.80;3.50;;;14.90;65.10;;;;;;6018207;29;20241;-79
2023/09/20 03:08:53;;;;;;;3.47;3.27;;;14.80;65.10;;;;;;6013823;29;20245;-80
2023/09/20 03:11:59;;;;;;;3.73;3.43;;;14.90;65.20;;;;;;6016152;29;20332;-81
2023/09/20 03:15:04;;;;;;;3.63;3.43;;;14.80;65.20;;;;;;6017964;29;20918;-80
2023/09/20 03:18:09;;;;;;;4.07;3.80;;;14.90;65.20;;;;;;6002718;29;20249;-79
2023/09/20 03:21:12;;;;;;;5.13;3.47;;;14.90;65.30;;;;;;6016776;29;20350;-81
2023/09/20 03:24:15;;;;;;;3.50;3.20;;;14.90;65.30;;;;;;6022038;29;20234;-80
2023/09/20 03:27:23;;;;;;;4.07;3.67;;;14.90;65.70;;;;;;6007524;29;20260;-80
2023/09/20 03:30:28;;;;;;;5.20;3.47;;;14.90;65.50;;;;;;6024369;29;20393;-78
2023/09/20 03:33:31;;;;;;;3.30;3.10;;;14.80;65.60;;;;;;6007927;29;20946;-80
2023/09/20 03:36:36;;;;;;;3.57;3.23;;;14.90;65.60;;;;;;6007262;29;20263;-82
2023/09/20 03:39:41;;;;;;;3.73;3.43;;;14.90;65.50;;;;;;6015497;29;20760;-79
2023/09/20 03:42:48;;;;;;;4.27;3.60;;;14.90;65.60;;;;;;6009255;29;20242;-79
2023/09/20 03:45:52;;;;;;;3.90;3.60;;;14.80;65.90;;;;;;6008637;29;20332;-79
2023/09/20 03:48:55;;;;;;;5.70;3.80;;;14.80;66.10;;;;;;6013238;29;20241;-80
2023/09/20 03:52:00;;;;;;;3.80;3.50;;;14.80;65.90;;;;;;6011273;29;20255;-78
2023/09/20 03:55:04;;;;;;;3.97;3.67;;;14.80;66.00;;;;;;6008983;29;20765;-80
2023/09/20 03:58:11;;;;;;;6.47;3.90;;;14.70;66.40;;;;;;6003554;29;20870;-79
2023/09/20 04:01:15;;;;;;;4.83;4.40;;;14.70;66.60;;;;;;6013539;29;20332;-78
2023/09/20 04:04:19;;;;;;;3.80;3.53;;;14.70;66.50;;;;;;6017588;29;20274;-80
2023/09/20 04:07:23;;;;;;;5.00;3.57;;;14.70;66.60;;;;;;6010214;29;20260;-80
2023/09/20 04:10:27;;;;;;;3.87;3.50;;;14.70;66.60;;;;;;6002166;29;20301;-79
2023/09/20 04:13:32;;;;;;;4.23;3.57;;;14.70;66.70;;;;;;6018405;29;20598;-80
2023/09/20 04:16:37;;;;;;;3.73;3.43;;;14.70;66.90;;;;;;6007275;29;20273;-79
2023/09/20 04:19:42;;;;;;;4.93;3.50;;;14.70;66.70;;;;;;6006446;29;21086;-78
2023/09/20 04:22:45;;;;;;;3.73;3.50;;;14.70;67.00;;;;;;6005217;29;20376;-79
2023/09/20 04:25:51;;;;;;;3.73;3.53;;;14.70;67.00;;;;;;6008538;29;20237;-79
2023/09/20 04:28:58;;;;;;;3.80;3.60;;;14.70;66.90;;;;;;6000627;29;20255;-78
2023/09/20 04:32:01;;;;;;;4.13;3.83;;;14.70;67.00;;;;;;6009668;29;20853;-79
2023/09/20 04:35:05;;;;;;;3.97;3.60;;;14.60;67.20;;;;;;6008990;29;20248;-79
2023/09/20 04:38:09;;;;;;;3.73;3.43;;;14.60;67.50;;;;;;6003112;29;20296;-77
2023/09/20 04:41:13;;;;;;;3.60;3.50;;;14.50;67.80;;;;;;6009278;29;20256;-82
2023/09/20 04:44:18;;;;;;;4.40;3.97;;;14.50;67.90;;;;;;6014806;29;20233;-78
2023/09/20 04:47:21;;;;;;;4.20;4.10;;;14.50;67.90;;;;;;6004584;29;20269;-80
2023/09/20 04:50:24;;;;;;;3.60;3.37;;;14.50;68.20;;;;;;6006723;29;20241;-79
2023/09/20 04:53:28;;;;;;;4.23;3.83;;;14.50;68.00;;;;;;6003217;29;20655;-78
2023/09/20 04:56:32;;;;;;;3.67;3.37;;;14.50;68.20;;;;;;6015727;29;20252;-79
2023/09/20 04:59:38;;;;;;;6.97;3.87;;;14.40;68.20;;;;;;6007026;29;20252;-79
2023/09/20 05:02:41;;;;;;;8.77;4.40;;;14.50;68.30;;;;;;6015572;29;20261;-78
2023/09/20 05:05:47;;;;;;;5.80;4.10;;;14.50;68.40;;;;;;6012645;29;20918;-78
2023/09/20 05:08:54;;;;;;;9.20;3.97;;;14.40;68.70;;;;;;6007471;29;20238;-79
2023/09/20 05:11:57;;;;;;;4.30;4.00;;;14.40;68.70;;;;;;6005686;29;20245;-79
2023/09/20 05:15:03;;;;;;;4.20;3.83;;;14.40;68.90;;;;;;6004478;29;20240;-79
2023/09/20 05:18:07;;;;;;;4.40;4.00;;;14.40;69.10;;;;;;6006961;29;20245;-79
2023/09/20 05:21:13;;;;;;;4.40;4.00;;;14.40;69.00;;;;;;6012660;29;20385;-81
2023/09/20 05:24:16;;;;;;;5.70;3.80;;;14.40;69.10;;;;;;6025047;29;20318;-79
2023/09/20 05:27:19;;;;;;;5.03;3.70;;;14.40;69.30;;;;;;6015405;29;20248;-77
2023/09/20 05:30:24;;;;;;;3.80;3.60;;;14.50;69.30;;;;;;6030623;29;20256;-76
2023/09/20 05:33:30;;;;;;;4.60;3.97;;;14.50;69.30;;;;;;6010268;29;20244;-79
2023/09/20 05:36:33;;;;;;;3.50;3.30;;;14.50;69.20;;;;;;6012856;29;20254;-77
2023/09/20 05:39:37;;;;;;;4.43;3.77;;;14.50;69.40;;;;;;6008920;29;20364;-78
2023/09/20 05:42:41;;;;;;;4.77;3.83;;;14.60;69.30;;;;;;6006582;29;20265;-77
2023/09/20 05:45:46;;;;;;;4.77;4.33;;;14.60;69.40;;;;;;6005685;29;20665;-78
2023/09/20 05:48:49;;;;;;;4.30;4.00;;;14.60;69.20;;;;;;6002340;29;20386;-78
2023/09/20 05:51:52;;;;;;;4.00;3.70;;;14.70;69.40;;;;;;6008110;29;20267;-78
2023/09/20 05:54:56;;;;;;;5.47;3.80;;;14.70;69.50;;;;;;6020178;29;20324;-77
2023/09/20 05:58:00;;;;;;;5.03;3.57;;;14.70;69.50;;;;;;6014496;29;20734;-78
2023/09/20 06:01:07;;;;;;;5.67;4.00;;;14.80;69.40;;;;;;6018687;29;20348;-76
2023/09/20 06:04:11;;;;;;;5.53;3.87;;;14.80;69.40;;;;;;6019744;29;20388;-75
2023/09/20 06:07:15;;;;;;;9.13;5.37;;;14.90;69.40;;;;;;6031000;29;20244;-77
2023/09/20 06:10:19;;;;;;;6.40;4.93;;;14.90;69.80;;;;;;6011333;29;20309;-77
2023/09/20 06:13:22;;;;;;;4.83;4.13;;;14.90;69.70;;;;;;6017443;29;20641;-77
2023/09/20 06:16:26;;;;;;;5.37;4.33;;;14.90;69.50;;;;;;6006903;29;20293;-79
2023/09/20 06:19:30;;;;;;;4.03;3.73;;;15.00;69.30;;;;;;6016433;29;20731;-79
2023/09/20 06:22:33;;;;;;;5.93;3.73;;;15.10;69.10;;;;;;6007683;29;20240;-78
2023/09/20 06:25:37;;;;;;;5.33;3.80;;;15.20;69.30;;;;;;6013516;29;20778;-78
2023/09/20 06:28:41;;;;;;;4.10;3.70;;;15.30;69.40;;;;;;6011818;29;20323;-77
2023/09/20 06:31:45;;;;;;;3.60;3.30;;;15.30;69.10;;;;;;5997231;29;20745;-77
2023/09/20 06:34:49;;;;;;;4.27;3.53;;;15.50;69.10;;;;;;6003940;29;20242;-79
2023/09/20 06:38:01;;;;;;;3.70;3.40;;;15.60;68.70;;;;;;6014168;29;20237;-77
2023/09/20 06:41:05;;;;;;;3.90;3.47;;;15.60;68.50;;;;;;6013367;29;20992;-77
2023/09/20 06:44:08;;;;;;;4.90;3.43;;;15.80;68.50;;;;;;6006411;29;20249;-78
2023/09/20 06:47:13;;;;;;;3.67;3.40;;;16.00;68.10;;;;;;6011814;29;20896;-77
2023/09/20 06:50:17;;;;;;;3.20;3.00;;;16.10;67.80;;;;;;6004227;29;20267;-77
2023/09/20 06:53:23;;;;;;;3.53;3.33;;;16.20;67.50;;;;;;6014117;29;20949;-78
2023/09/20 06:56:27;;;;;;;3.67;3.37;;;16.40;67.50;;;;;;6017798;29;20248;-78
2023/09/20 06:59:33;;;;;;;5.43;3.47;;;16.40;67.00;;;;;;6011769;29;20242;-77
2023/09/20 07:02:37;;;;;;;5.47;3.50;;;16.60;66.80;;;;;;6009990;29;20245;-77
2023/09/20 07:05:40;;;;;;;3.10;2.93;;;16.60;66.90;;;;;;6023941;29;20236;-77
2023/09/20 07:08:45;;;;;;;3.30;3.00;;;16.90;66.30;;;;;;6016774;29;20648;-78
2023/09/20 07:11:50;;;;;;;4.03;3.20;;;17.00;66.40;;;;;;6006204;29;20754;-76
2023/09/20 07:14:54;;;;;;;3.50;3.10;;;17.20;66.10;;;;;;6012752;29;20266;-77
2023/09/20 07:18:11;;;;;;;5.07;4.77;;;17.40;65.20;;;;;;6012259;29;20253;-76
2023/09/20 07:21:14;;;;;;;4.47;3.07;;;17.50;65.40;;;;;;6008332;29;20249;-78
2023/09/20 07:24:24;;;;;;;3.40;3.00;;;17.80;64.40;;;;;;6020782;29;20249;-76
2023/09/20 07:27:27;;;;;;;2.77;2.67;;;18.00;64.20;;;;;;6009516;29;20261;-76
2023/09/20 07:30:34;;;;;;;5.17;3.53;;;17.90;64.60;;;;;;6013072;29;20337;-78
2023/09/20 07:33:40;;;;;;;5.57;3.00;;;18.00;64.60;;;;;;6006517;29;20240;-77
2023/09/20 07:36:44;;;;;;;4.57;3.53;;;18.00;63.90;;;;;;6007790;29;20386;-76
2023/09/20 07:39:47;;;;;;;2.80;2.60;;;18.10;64.00;;;;;;6011350;29;20249;-78
2023/09/20 07:42:51;;;;;;;3.33;2.80;;;18.20;63.80;;;;;;6006054;29;20329;-74
2023/09/20 07:45:54;;;;;;;2.53;2.43;;;18.40;63.50;;;;;;6007789;29;20253;-79
2023/09/20 07:49:09;;;;;;;3.50;3.20;;;18.50;63.20;;;;;;6008268;29;20368;-79
2023/09/20 07:52:12;;;;;;;3.10;2.90;;;18.50;63.00;;;;;;6002679;29;20245;-78
2023/09/20 07:55:17;;;;;;;4.13;2.90;;;18.50;63.10;;;;;;6005115;29;20328;-76
2023/09/20 07:58:20;;;;;;;3.07;2.97;;;18.30;63.50;;;;;;6012108;29;20752;-78
2023/09/20 08:01:29;;;;;;;7.03;3.30;;;18.40;63.70;;;;;;6009844;29;20261;-78
2023/09/20 08:04:37;;;;;;;3.63;2.80;;;18.60;63.50;;;;;;6009293;29;20295;-77
2023/09/20 08:07:40;;;;;;;3.10;2.90;;;18.70;63.10;;;;;;6007847;29;20286;-78
2023/09/20 08:10:44;;;;;;;6.17;2.70;;;18.60;62.90;;;;;;6001403;29;20753;-77
2023/09/20 08:14:05;;;;;;;9.87;2.93;;;18.80;62.90;;;;;;6012740;29;20296;-78
2023/09/20 08:20:34;;;;;;;6.60;2.67;;;19.20;62.50;;;;;;6011113;29;21068;-78
2023/09/20 09:00:35;;;;;;;8.13;2.97;;;20.50;60.50;;;;;;6010957;29;20385;-78
2023/09/20 09:03:41;;;;;;;3.50;3.20;;;20.40;60.50;;;;;;6004839;29;20856;-78
2023/09/20 09:06:44;;;;;;;3.57;2.50;;;20.50;59.90;;;;;;6008066;29;20228;-77
2023/09/20 09:09:49;;;;;;;3.23;2.93;;;20.60;59.80;;;;;;6007742;29;20256;-78
2023/09/20 09:12:52;;;;;;;4.63;2.80;;;20.80;59.40;;;;;;6003553;29;20242;-77
2023/09/20 09:15:56;;;;;;;3.00;2.70;;;21.00;58.80;;;;;;6004475;29;20252;-78
2023/09/20 09:18:59;;;;;;;3.20;2.90;;;21.00;59.30;;;;;;6005080;29;20240;-78
2023/09/20 09:22:03;;;;;;;7.63;3.30;;;20.80;59.40;;;;;;6010993;29;20868;-79
2023/09/20 09:25:12;;;;;;;3.47;2.80;;;21.00;59.30;;;;;;6008048;29;20285;-78
2023/09/20 09:28:17;;;;;;;4.90;3.00;;;20.90;59.00;;;;;;6017093;29;20237;-79
2023/09/20 09:31:20;;;;;;;3.30;3.00;;;20.70;59.60;;;;;;6015972;29;20544;-77
2023/09/20 09:34:25;;;;;;;3.93;2.70;;;20.70;60.10;;;;;;6017144;29;20642;-77
2023/09/20 09:37:28;;;;;;;3.00;2.80;;;20.40;60.40;;;;;;6013518;29;20787;-77
2023/09/20 09:40:32;;;;;;;5.83;3.07;;;20.50;60.60;;;;;;6014014;29;20244;-76
2023/09/20 09:43:37;;;;;;;2.90;2.70;;;20.30;60.40;;;;;;6010306;29;20252;-77
2023/09/20 09:46:40;;;;;;;3.23;3.07;;;20.10;60.70;;;;;;6013192;29;20249;-79
2023/09/20 09:49:45;;;;;;;3.50;2.93;;;20.00;60.90;;;;;;6016936;29;21300;-78
2023/09/20 09:52:50;;;;;;;4.90;2.63;;;20.10;60.60;;;;;;6008071;29;20266;-79
2023/09/20 09:55:56;;;;;;;6.07;3.07;;;20.20;60.50;;;;;;6008018;29;20776;-78
2023/09/20 09:59:00;;;;;;;5.00;3.07;;;20.10;61.00;;;;;;6008967;29;20847;-77
2023/09/20 10:02:07;;;;;;;4.17;3.50;;;20.00;61.20;;;;;;6012198;29;20249;-78
2023/09/20 10:05:14;;;;;;;6.70;3.20;;;20.10;61.00;;;;;;6007670;29;20265;-76
2023/09/20 10:08:22;;;;;;;5.17;3.10;;;20.30;61.20;;;;;;6015741;29;20385;-77
2023/09/20 10:11:27;;;;;;;3.50;3.13;;;20.50;60.40;;;;;;6008516;29;20750;-78
2023/09/20 10:14:32;;;;;;;5.53;3.10;;;20.60;60.30;;;;;;6007400;29;20765;-78
2023/09/20 10:17:35;;;;;;;8.23;3.43;;;20.70;59.70;;;;;;6018774;29;20253;-77
2023/09/20 10:21:04;;;;;;;3.73;2.97;;;20.80;59.90;;;;;;6023673;29;20245;-79
2023/09/20 10:24:14;;;;;;;5.47;2.57;;;20.80;59.60;;;;;;6010798;29;20271;-76
2023/09/20 10:27:20;;;;;;;4.83;2.77;;;20.90;59.10;;;;;;6005282;29;21927;-78
2023/09/20 10:30:23;;;;;;;6.50;2.90;;;21.10;59.00;;;;;;6014492;29;20257;-78
2023/09/20 10:33:45;;;;;;;4.63;2.70;;;21.30;58.60;;;;;;6012002;29;20240;-77
2023/09/20 10:36:53;;;;;;;7.00;2.80;;;21.30;58.50;;;;;;6004824;29;20241;-77
2023/09/20 10:39:59;;;;;;;2.80;2.57;;;21.30;58.60;;;;;;6017951;29;20562;-78
2023/09/20 10:43:03;;;;;;;3.50;2.87;;;21.10;59.20;;;;;;6008813;29;20241;-78
2023/09/20 10:46:08;;;;;;;4.50;2.90;;;21.10;58.90;;;;;;6006818;29;20710;-77
2023/09/20 10:49:14;;;;;;;3.40;2.70;;;21.50;58.60;;;;;;6012557;29;20237;-76
2023/09/20 10:52:56;;;;;;;4.53;3.83;;;21.50;58.20;;;;;;6021273;29;20237;-79
2023/09/20 10:55:59;;;;;;;3.50;2.83;;;21.70;58.00;;;;;;6017023;29;20258;-77
2023/09/20 10:59:09;;;;;;;3.70;2.60;;;22.00;57.40;;;;;;6018465;29;20236;-77
2023/09/20 11:02:16;;;;;;;4.13;2.80;;;22.20;57.00;;;;;;6003977;29;20245;-78
2023/09/20 11:05:20;;;;;;;5.13;3.03;;;22.30;56.60;;;;;;6014113;29;20324;-79
2023/09/20 11:08:24;;;;;;;2.77;2.57;;;22.30;57.20;;;;;;6006652;29;20245;-77
2023/09/20 11:11:29;;;;;;;6.73;3.00;;;22.30;56.70;;;;;;6009224;29;20242;-76
2023/09/20 11:14:35;;;;;;;2.67;2.53;;;22.50;56.70;;;;;;6008732;29;20245;-78
2023/09/20 11:17:43;;;;;;;3.40;2.63;;;22.50;56.60;;;;;;6011018;29;20277;-79
2023/09/20 11:20:47;;;;;;;5.53;3.10;;;22.40;56.70;;;;;;6008775;29;20317;-78
2023/09/20 11:23:51;;;;;;;2.73;2.53;;;22.30;56.50;;;;;;6015623;29;20327;-82
2023/09/20 11:26:55;;;;;;;3.00;2.80;;;22.30;56.60;;;;;;6013313;29;20917;-80
2023/09/20 11:30:07;;;;;;;4.70;3.50;;;22.10;56.90;;;;;;6017631;29;20316;-79
2023/09/20 11:33:28;;;;;;;10.93;3.03;;;21.90;57.70;;;;;;6008088;29;20269;-78
2023/09/20 11:36:37;;;;;;;4.30;2.63;;;21.90;57.60;;;;;;6015195;29;20394;-78
2023/09/20 11:39:43;;;;;;;3.63;2.63;;;21.90;57.70;;;;;;6016758;29;20753;-79
2023/09/20 11:42:46;;;;;;;3.63;3.17;;;21.90;57.30;;;;;;6007719;29;20579;-76
2023/09/20 11:45:53;;;;;;;8.53;3.20;;;21.90;57.70;;;;;;6008921;29;20257;-77
2023/09/20 11:49:05;;;;;;;3.43;3.13;;;21.70;58.30;;;;;;6000137;29;20659;-77
2023/09/20 11:52:08;;;;;;;3.17;2.83;;;21.90;58.40;;;;;;6009891;29;20273;-77
2023/09/20 11:55:13;;;;;;;2.37;2.27;;;22.00;57.80;;;;;;6018141;29;20232;-78
2023/09/20 11:58:20;;;;;;;3.00;2.70;;;22.20;57.30;;;;;;6020096;29;20324;-75
2023/09/20 12:01:30;;;;;;;2.57;2.47;;;22.20;57.30;;;;;;6009734;29;20913;-78
2023/09/20 12:04:33;;;;;;;5.47;2.77;;;22.50;57.20;;;;;;6006101;29;20245;-76
2023/09/20 12:07:39;;;;;;;3.27;2.70;;;22.90;56.80;;;;;;6008819;29;20257;-78
2023/09/20 12:10:53;;;;;;;4.47;2.67;;;23.10;56.00;;;;;;6296690;27;20589;-79
2023/09/20 12:13:56;;;;;;;6.30;2.30;;;23.10;55.70;;;;;;6283515;28;20320;-78
2023/09/20 12:17:00;;;;;;;5.60;2.73;;;23.00;56.10;;;;;;6279689;27;20371;-77
2023/09/20 12:20:04;;;;;;;7.83;2.50;;;22.90;55.80;;;;;;6273605;28;20240;-79
2023/09/20 12:23:07;;;;;;;4.50;2.63;;;22.80;56.10;;;;;;6284161;28;20252;-79
2023/09/20 12:26:12;;;;;;;3.17;2.83;;;22.80;56.60;;;;;;6281983;28;20240;-79
2023/09/20 12:29:16;;;;;;;4.50;2.77;;;22.90;55.70;;;;;;6310091;28;20357;-78
2023/09/20 12:32:19;;;;;;;5.27;2.53;;;22.90;55.60;;;;;;6308296;28;20237;-75
2023/09/20 12:35:22;;;;;;;3.67;2.67;;;23.10;56.00;;;;;;6303111;28;20237;-76
2023/09/20 12:38:29;;;;;;;3.73;2.60;;;23.30;54.70;;;;;;6297596;28;20841;-78
2023/09/20 12:41:37;;;;;;;7.43;2.80;;;23.40;54.80;;;;;;6296931;28;20248;-78
2023/09/20 12:44:40;;;;;;;4.80;2.87;;;23.60;54.50;;;;;;6304805;28;20244;-77
2023/09/20 12:47:44;;;;;;;6.97;3.37;;;23.60;54.30;;;;;;6290673;28;20726;-79
2023/09/20 12:50:48;;;;;;;4.00;3.60;;;23.60;54.60;;;;;;6301568;28;20322;-77
2023/09/20 12:53:51;;;;;;;6.30;2.83;;;23.60;54.50;;;;;;6300627;28;20394;-78
2023/09/20 12:56:57;;;;;;;2.53;2.43;;;23.30;55.20;;;;;;6302884;28;20735;-77
2023/09/20 13:00:02;;;;;;;4.90;2.23;;;23.30;55.90;;;;;;6300913;28;20777;-77
2023/09/20 13:03:07;;;;;;;2.37;2.27;;;23.60;54.70;;;;;;6302563;28;20316;-76
2023/09/20 13:06:14;;;;;;;4.73;2.83;;;23.70;54.40;;;;;;6310648;28;20876;-76
2023/09/20 13:09:18;;;;;;;3.00;2.80;;;23.90;54.20;;;;;;6293958;28;20315;-76
2023/09/20 13:12:22;;;;;;;8.43;3.40;;;24.00;54.90;;;;;;6309950;28;20301;-78
2023/09/20 13:15:26;;;;;;;6.17;3.17;;;24.20;54.40;;;;;;6275086;28;20269;-76
2023/09/20 13:18:29;;;;;;;3.83;2.70;;;24.20;53.60;;;;;;6305401;28;20319;-77
2023/09/20 13:21:32;;;;;;;5.07;3.40;;;24.20;53.90;;;;;;6289357;28;20382;-76
2023/09/20 13:24:40;;;;;;;3.23;2.40;;;24.00;53.70;;;;;;6283525;28;20237;-76
2023/09/20 13:27:45;;;;;;;4.63;2.60;;;24.00;53.60;;;;;;6283987;28;20241;-77
2023/09/20 13:30:48;;;;;;;4.60;3.10;;;24.00;53.40;;;;;;6286492;28;20264;-77
2023/09/20 13:33:51;;;;;;;5.23;3.10;;;23.90;53.70;;;;;;6288520;28;20234;-76
2023/09/20 13:36:56;;;;;;;4.37;3.13;;;23.90;54.00;;;;;;6287827;28;20241;-77
2023/09/20 13:39:59;;;;;;;3.37;2.73;;;23.80;53.80;;;;;;6287346;28;20707;-76
2023/09/20 13:43:04;;;;;;;3.20;2.97;;;23.90;53.70;;;;;;6277984;28;20768;-76
2023/09/20 13:46:14;;;;;;;3.00;2.80;;;24.00;53.50;;;;;;6277933;28;20318;-75
2023/09/20 13:49:17;;;;;;;8.40;2.97;;;24.20;53.20;;;;;;6288542;28;20675;-76
2023/09/20 13:52:21;;;;;;;13.83;3.90;;;24.20;52.60;;;;;;6289023;28;20241;-77
2023/09/20 13:55:24;;;;;;;3.27;3.10;;;24.20;52.70;;;;;;6283278;28;20827;-77
2023/09/20 13:58:36;;;;;;;2.67;2.57;;;24.30;52.30;;;;;;6285173;28;20306;-76
2023/09/20 14:01:39;;;;;;;3.70;2.80;;;24.40;51.90;;;;;;6286931;28;20241;-78
2023/09/20 14:04:42;;;;;;;2.70;2.50;;;24.40;51.80;;;;;;6288601;28;20309;-77
2023/09/20 14:07:47;;;;;;;4.90;2.80;;;24.40;51.90;;;;;;6281305;28;20236;-76
2023/09/20 14:10:50;;;;;;;5.50;2.70;;;24.30;52.10;;;;;;6277197;28;20246;-78
2023/09/20 14:13:54;;;;;;;4.87;3.13;;;24.00;52.50;;;;;;6284353;28;20342;-77
2023/09/20 14:16:57;;;;;;;4.13;2.57;;;23.80;52.80;;;;;;6281656;28;20405;-76
2023/09/20 14:20:08;;;;;;;3.77;2.70;;;23.60;53.00;;;;;;6284381;28;20855;-77
2023/09/20 14:23:11;;;;;;;4.87;3.93;;;23.60;53.20;;;;;;6284704;28;20306;-76
2023/09/20 14:26:14;;;;;;;4.37;2.80;;;23.60;53.30;;;;;;6289496;28;20229;-76
2023/09/20 14:29:19;;;;;;;3.57;3.00;;;23.60;53.30;;;;;;6275450;28;20225;-80
2023/09/20 14:32:22;;;;;;;3.50;3.20;;;23.90;53.40;;;;;;6283017;28;20229;-79
2023/09/20 14:35:26;;;;;;;3.90;3.23;;;24.00;52.90;;;;;;6283070;28;20236;-78
2023/09/20 14:38:29;;;;;;;3.97;3.67;;;24.10;53.20;;;;;;6285995;28;20757;-79
2023/09/20 14:41:34;;;;;;;5.67;5.20;;;24.20;52.80;;;;;;6288851;28;20375;-79
2023/09/20 14:44:39;;;;;;;4.27;3.87;;;24.30;52.50;;;;;;6296632;28;20263;-82
2023/09/20 14:47:43;;;;;;;3.57;3.07;;;24.30;53.50;;;;;;6289868;28;20237;-79
2023/09/20 14:50:47;;;;;;;3.43;3.10;;;24.40;53.00;;;;;;6294820;28;20241;-77
2023/09/20 14:53:55;;;;;;;3.07;2.87;;;24.50;52.80;;;;;;6301672;28;20233;-79
2023/09/20 14:56:58;;;;;;;3.80;3.00;;;24.60;53.00;;;;;;6306402;28;20319;-81
2023/09/20 15:00:05;;;;;;;2.80;2.70;;;24.50;53.20;;;;;;6302961;28;20241;-80
2023/09/20 15:03:11;;;;;;;2.90;2.80;;;24.40;53.40;;;;;;6291585;28;20280;-79
2023/09/20 15:06:18;;;;;;;3.57;3.27;;;24.00;53.50;;;;;;6283787;28;20335;-79
2023/09/20 15:09:21;;;;;;;2.97;2.77;;;23.90;54.00;;;;;;6288786;28;20229;-80
2023/09/20 15:12:26;;;;;;;6.13;3.23;;;23.90;53.80;;;;;;6292103;28;20290;-82
2023/09/20 15:15:32;;;;;;;6.97;2.50;;;23.80;54.00;;;;;;6289024;28;20731;-80
2023/09/20 15:18:36;;;;;;;3.30;2.80;;;23.60;54.20;;;;;;6284142;28;20877;-79
2023/09/20 15:21:40;;;;;;;3.40;3.13;;;23.60;54.00;;;;;;6287529;28;20237;-79
2023/09/20 15:24:43;;;;;;;4.13;3.80;;;23.50;54.30;;;;;;6287888;28;20313;-80
2023/09/20 15:27:46;;;;;;;2.83;2.73;;;23.40;54.80;;;;;;6287733;28;20256;-82
2023/09/20 15:30:50;;;;;;;4.37;3.00;;;23.40;54.80;;;;;;6278783;28;20383;-79
2023/09/20 15:33:55;;;;;;;3.07;2.93;;;23.40;54.80;;;;;;6280712;28;20871;-81
2023/09/20 15:36:59;;;;;;;7.30;3.47;;;23.30;54.80;;;;;;6286030;28;20244;-80
2023/09/20 15:40:06;;;;;;;9.13;3.20;;;23.40;55.00;;;;;;6295662;28;20244;-80
2023/09/20 15:43:09;;;;;;;4.37;3.20;;;23.50;55.10;;;;;;6282376;28;20237;-79
2023/09/20 15:46:14;;;;;;;3.33;3.10;;;23.50;54.50;;;;;;6289031;28;20760;-79
2023/09/20 15:49:18;;;;;;;4.87;3.90;;;23.50;54.50;;;;;;6290383;28;20326;-81
2023/09/20 15:52:21;;;;;;;3.63;3.00;;;23.40;54.50;;;;;;6278852;28;22014;-77
2023/09/20 15:55:24;;;;;;;3.33;3.13;;;23.30;55.00;;;;;;6286486;28;20237;-78
2023/09/20 15:58:28;;;;;;;5.57;3.50;;;23.30;55.10;;;;;;6285472;28;20428;-77
2023/09/20 16:01:36;;;;;;;7.27;3.10;;;23.30;55.10;;;;;;6285487;28;20235;-82
2023/09/20 16:04:39;;;;;;;5.90;3.57;;;23.20;55.50;;;;;;6288401;28;20229;-78
2023/09/20 16:07:42;;;;;;;5.00;3.43;;;23.10;55.50;;;;;;6284694;28;20251;-80
2023/09/20 16:10:49;;;;;;;4.33;3.30;;;23.00;55.70;;;;;;6276848;28;20310;-81
2023/09/20 16:13:52;;;;;;;4.77;3.23;;;22.90;56.00;;;;;;6283137;28;20237;-79
2023/09/20 16:16:59;;;;;;;7.20;3.20;;;22.80;55.90;;;;;;6286620;28;20312;-79
2023/09/20 16:20:03;;;;;;;3.97;3.13;;;22.80;56.10;;;;;;6278979;28;20230;-79
2023/09/20 16:23:07;;;;;;;3.30;3.07;;;22.80;56.10;;;;;;6280165;28;20244;-80
2023/09/20 16:26:10;;;;;;;3.43;3.13;;;22.70;56.20;;;;;;6283585;28;20307;-77
2023/09/20 16:29:13;;;;;;;4.13;3.30;;;22.70;56.80;;;;;;6277360;28;20331;-79
2023/09/20 16:32:19;;;;;;;5.20;3.53;;;22.60;56.70;;;;;;6276534;28;20558;-79
2023/09/20 16:35:22;;;;;;;5.27;4.00;;;22.50;57.00;;;;;;6285396;28;20242;-78
2023/09/20 16:38:26;;;;;;;3.80;3.60;;;22.50;56.90;;;;;;6271399;28;20323;-80
2023/09/20 16:41:29;;;;;;;4.83;4.23;;;22.40;57.10;;;;;;6281450;28;20229;-81
2023/09/20 16:44:32;;;;;;;8.07;4.70;;;22.30;57.30;;;;;;6285656;28;20318;-80